Time;durP1;ratioP1;P1;durP2;ratioP2;P2;SDS_P1;SDS_P2;PMS_P1;PMS_P2;Temp;Humidity;BMP_temperature;BMP_pressure;BME280_temperature;BME280_humidity;BME280_pressure;Samples;Min_cycle;Max_cycle;Signal;HPM_P1;HPM_P2
2023/10/09 00:02:10;;;;;;;0.10;0.10;;;;;;;11.36;85.10;98051.38;5135369;27;20035;-73
2023/10/09 00:04:41;;;;;;;0.20;0.20;;;;;;;11.36;85.54;98045.22;5126421;27;20063;-75
2023/10/09 00:07:10;;;;;;;0.30;0.30;;;;;;;11.42;85.28;98046.31;5134158;27;20149;-75
2023/10/09 00:09:46;;;;;;;0.20;0.20;;;;;;;11.48;85.26;98045.53;5134075;27;20045;-73
2023/10/09 00:12:22;;;;;;;0.10;0.10;;;;;;;11.49;85.07;98040.00;5132973;27;20071;-74
2023/10/09 00:14:55;;;;;;;0.13;0.13;;;;;;;11.50;85.21;98036.31;5136803;27;20495;-74
2023/10/09 00:17:30;;;;;;;0.25;0.25;;;;;;;11.57;84.88;98020.34;5133305;27;20043;-74
2023/10/09 00:20:07;;;;;;;0.10;0.10;;;;;;;11.57;84.96;98018.50;5134331;27;20054;-73
2023/10/09 00:22:41;;;;;;;0.10;0.10;;;;;;;11.55;84.80;98020.53;5127029;27;20041;-74
2023/10/09 00:25:12;;;;;;;0.20;0.20;;;;;;;11.55;84.96;98017.84;5123313;27;20127;-73
2023/10/09 00:27:42;;;;;;;0.10;0.10;;;;;;;11.57;84.91;98009.66;5131774;27;20456;-76
2023/10/09 00:30:15;;;;;;;0.13;0.13;;;;;;;11.59;85.10;97992.41;5142978;27;20138;-73
2023/10/09 00:32:51;;;;;;;0.30;0.30;;;;;;;11.61;85.00;97982.34;5120886;27;20409;-73
2023/10/09 00:35:41;;;;;;;0.30;0.30;;;;;;;11.59;85.12;97987.06;5133417;27;20043;-73
2023/10/09 00:38:18;;;;;;;0.30;0.30;;;;;;;11.63;84.97;97979.47;5117733;27;20086;-74
2023/10/09 00:41:09;;;;;;;0.20;0.20;;;;;;;11.63;85.10;97979.47;5133022;27;20037;-74
2023/10/09 00:43:35;;;;;;;0.20;0.20;;;;;;;11.68;84.69;97975.22;5133883;27;20035;-74
2023/10/09 00:46:08;;;;;;;0.20;0.20;;;;;;;11.63;84.91;97972.28;5128651;27;20047;-73
2023/10/09 00:48:40;;;;;;;0.10;0.10;;;;;;;11.62;84.95;97962.63;5110828;27;20100;-73
2023/10/09 00:51:17;;;;;;;;;;;;;;;11.63;84.79;97960.75;5119428;27;20088;-73
2023/10/09 00:53:48;;;;;;;0.20;0.20;;;;;;;11.62;84.96;97969.81;5105732;27;19926;-74
2023/10/09 00:56:21;;;;;;;0.20;0.20;;;;;;;11.60;85.10;97956.63;5131075;27;20463;-74
2023/10/09 00:58:54;;;;;;;0.20;0.20;;;;;;;11.53;85.35;97954.91;5133452;27;20065;-73
2023/10/09 01:01:27;;;;;;;0.32;0.32;;;;;;;11.54;85.11;97949.38;5134045;27;20045;-77
2023/10/09 01:03:59;;;;;;;;;;;;;;;11.55;85.24;97942.19;5116501;27;20046;-75
2023/10/09 01:06:33;;;;;;;0.20;0.20;;;;;;;11.55;85.21;97945.69;5113937;27;20525;-75
2023/10/09 01:09:09;;;;;;;0.20;0.20;;;;;;;11.58;85.18;97941.81;5126326;27;20072;-75
2023/10/09 01:11:47;;;;;;;0.13;0.13;;;;;;;11.57;85.19;97940.16;5128918;27;20468;-74
2023/10/09 01:14:15;;;;;;;0.20;0.20;;;;;;;11.52;85.63;97932.72;5134570;27;20063;-73
2023/10/09 01:16:43;;;;;;;0.10;0.10;;;;;;;11.52;85.53;97927.38;5126395;27;20119;-75
2023/10/09 01:19:23;;;;;;;0.10;0.10;;;;;;;11.53;85.76;97933.50;5133156;27;20039;-72
2023/10/09 01:21:52;;;;;;;0.10;0.10;;;;;;;11.54;85.66;97925.31;5114225;27;20510;-73
2023/10/09 01:24:22;;;;;;;0.30;0.30;;;;;;;11.52;85.66;97926.53;5125253;27;20077;-74
2023/10/09 01:26:54;;;;;;;0.10;0.10;;;;;;;11.49;85.99;97921.56;5110743;27;20047;-73
2023/10/09 01:29:27;;;;;;;0.25;0.25;;;;;;;11.42;86.35;97920.69;5114408;27;20047;-74
2023/10/09 01:31:56;;;;;;;0.10;0.10;;;;;;;11.50;86.07;97920.56;5123570;27;20408;-73
2023/10/09 01:34:38;;;;;;;0.28;0.28;;;;;;;11.43;86.17;97909.78;5143671;27;20083;-74
2023/10/09 01:37:11;;;;;;;0.10;0.10;;;;;;;11.40;86.43;97911.03;5114070;27;20039;-74
2023/10/09 01:39:42;;;;;;;0.10;0.10;;;;;;;11.29;87.11;97906.19;5134584;27;20088;-74
2023/10/09 01:42:10;;;;;;;0.20;0.20;;;;;;;11.31;86.81;97898.00;5138596;27;20035;-75
2023/10/09 01:44:43;;;;;;;0.20;0.20;;;;;;;11.34;86.82;97887.72;5113394;27;20051;-75
2023/10/09 01:47:14;;;;;;;0.10;0.10;;;;;;;11.31;87.03;97884.63;5136614;27;20197;-75
2023/10/09 01:49:43;;;;;;;0.20;0.20;;;;;;;11.29;87.14;97881.31;5121442;27;20050;-74
2023/10/09 01:52:15;;;;;;;0.10;0.10;;;;;;;11.24;87.22;97886.38;5134589;27;20043;-75
2023/10/09 01:54:48;;;;;;;0.20;0.20;;;;;;;11.21;87.47;97890.25;5131627;27;20111;-73
2023/10/09 01:57:22;;;;;;;0.20;0.20;;;;;;;11.21;88.11;97903.63;5134625;27;20111;-73
2023/10/09 01:59:53;;;;;;;0.10;0.10;;;;;;;11.22;87.92;97893.75;5123411;27;20103;-72
2023/10/09 02:02:33;;;;;;;0.10;0.10;;;;;;;11.20;87.98;97896.66;5128621;27;20065;-73
2023/10/09 02:05:10;;;;;;;0.20;0.20;;;;;;;11.15;88.07;97901.72;5135693;27;20042;-72
2023/10/09 02:07:51;;;;;;;0.20;0.20;;;;;;;11.16;88.09;97897.22;5122573;27;20091;-72
2023/10/09 02:10:31;;;;;;;0.10;0.10;;;;;;;11.13;88.19;97882.38;5129007;27;20067;-75
2023/10/09 02:13:06;;;;;;;0.25;0.25;;;;;;;11.10;88.47;97877.44;5116869;27;20039;-76
2023/10/09 02:15:45;;;;;;;0.20;0.20;;;;;;;11.15;88.43;97867.00;5117708;27;20086;-77
2023/10/09 02:18:18;;;;;;;0.30;0.22;;;;;;;11.10;88.59;97856.06;5113486;27;20141;-72
2023/10/09 02:21:00;;;;;;;0.20;0.20;;;;;;;11.11;88.67;97859.56;5115362;28;20054;-75
2023/10/09 02:23:39;;;;;;;0.10;0.10;;;;;;;11.07;88.77;97842.25;5131881;27;20054;-73
2023/10/09 02:26:09;;;;;;;0.20;0.20;;;;;;;11.12;88.84;97840.66;5129617;27;20084;-72
2023/10/09 02:28:36;;;;;;;0.20;0.20;;;;;;;11.03;89.39;97828.44;5110816;28;20054;-73
2023/10/09 02:31:11;;;;;;;0.20;0.20;;;;;;;11.09;89.33;97832.22;5121657;28;20062;-75
2023/10/09 02:33:40;;;;;;;0.10;0.10;;;;;;;11.10;89.33;97821.34;5122590;22;20112;-75
2023/10/09 02:36:08;;;;;;;0.10;0.10;;;;;;;11.12;89.66;97821.13;5083661;28;20044;-75
2023/10/09 02:38:40;;;;;;;0.10;0.10;;;;;;;11.16;89.38;97822.41;5079259;28;20047;-76
2023/10/09 02:41:20;;;;;;;0.20;0.20;;;;;;;11.15;89.36;97821.56;5079675;28;20040;-75
2023/10/09 02:43:50;;;;;;;0.20;0.20;;;;;;;11.18;89.54;97813.19;5077108;28;20035;-76
2023/10/09 02:46:20;;;;;;;0.15;0.15;;;;;;;11.17;89.30;97810.72;5086163;28;20048;-76
2023/10/09 02:48:50;;;;;;;0.20;0.20;;;;;;;11.13;89.70;97794.22;5089552;28;20558;-76
2023/10/09 02:51:32;;;;;;;0.30;0.30;;;;;;;11.11;89.94;97790.13;5087926;28;20135;-75
2023/10/09 02:54:07;;;;;;;0.30;0.30;;;;;;;11.18;89.68;97785.66;5096386;28;20410;-76
2023/10/09 02:56:42;;;;;;;0.25;0.25;;;;;;;11.13;90.10;97794.22;5090256;28;20191;-75
2023/10/09 02:59:10;;;;;;;0.20;0.20;;;;;;;11.14;90.05;97781.69;5097414;28;20078;-75
2023/10/09 03:01:41;;;;;;;0.10;0.10;;;;;;;11.13;90.10;97790.72;5092494;28;20060;-76
2023/10/09 03:04:10;;;;;;;0.20;0.20;;;;;;;11.12;90.17;97784.56;5090743;28;20140;-74
2023/10/09 03:06:49;;;;;;;0.20;0.20;;;;;;;11.09;90.32;97768.94;5094735;28;20443;-74
2023/10/09 03:09:18;;;;;;;0.20;0.20;;;;;;;11.14;90.14;97773.69;5099812;28;20550;-75
2023/10/09 03:11:53;;;;;;;0.10;0.10;;;;;;;11.13;90.15;97777.38;5089576;28;20082;-75
2023/10/09 03:14:26;;;;;;;0.20;0.20;;;;;;;11.07;90.20;97783.50;5088758;28;20490;-74
2023/10/09 03:16:54;;;;;;;0.20;0.20;;;;;;;11.07;90.13;97765.63;5086742;28;20038;-75
2023/10/09 03:19:21;;;;;;;0.20;0.20;;;;;;;11.07;90.27;97767.47;5088582;28;20087;-75
2023/10/09 03:21:49;;;;;;;0.20;0.20;;;;;;;11.07;90.40;97765.63;5104117;28;20075;-76
2023/10/09 03:24:19;;;;;;;0.40;0.40;;;;;;;11.09;90.33;97762.75;5086504;28;20042;-76
2023/10/09 03:26:55;;;;;;;0.20;0.20;;;;;;;11.04;90.65;97760.66;5080763;28;20525;-76
2023/10/09 03:29:24;;;;;;;0.30;0.30;;;;;;;11.09;90.67;97776.13;5093007;28;20051;-75
2023/10/09 03:31:52;;;;;;;0.20;0.20;;;;;;;11.10;90.34;97765.25;5093613;28;20050;-77
2023/10/09 03:34:20;;;;;;;0.20;0.20;;;;;;;11.08;90.11;97777.13;5092453;28;20052;-75
2023/10/09 03:36:48;;;;;;;0.20;0.20;;;;;;;11.09;90.38;97778.78;5100808;28;20119;-75
2023/10/09 03:39:25;;;;;;;0.30;0.30;;;;;;;11.10;90.50;97773.25;5095443;28;20036;-75
2023/10/09 03:41:57;;;;;;;0.35;0.35;;;;;;;11.10;90.39;97773.25;5083181;28;20427;-77
2023/10/09 03:44:28;;;;;;;0.20;0.20;;;;;;;11.11;90.29;97766.06;5094665;28;20486;-75
2023/10/09 03:46:56;;;;;;;0.10;0.10;;;;;;;11.11;90.47;97760.72;5092547;28;20054;-75
2023/10/09 03:49:25;;;;;;;0.20;0.20;;;;;;;11.13;90.63;97762.16;5089025;28;20076;-75
2023/10/09 03:51:55;;;;;;;0.20;0.20;;;;;;;11.17;90.71;97773.31;5094475;28;20036;-75
2023/10/09 03:54:24;;;;;;;0.20;0.20;;;;;;;11.18;90.57;97767.78;5094869;28;20043;-75
2023/10/09 03:56:54;;;;;;;0.20;0.20;;;;;;;11.22;90.47;97765.50;5094163;28;20093;-75
2023/10/09 03:59:22;;;;;;;0.30;0.30;;;;;;;11.26;90.59;97767.63;5101875;28;20119;-75
2023/10/09 04:01:52;;;;;;;0.30;0.30;;;;;;;11.28;90.67;97764.75;5094277;28;20399;-76
2023/10/09 04:04:23;;;;;;;0.30;0.30;;;;;;;11.30;90.60;97774.25;5094381;28;20051;-76
2023/10/09 04:06:51;;;;;;;0.30;0.30;;;;;;;11.31;90.70;97757.19;5097067;28;20040;-76
2023/10/09 04:09:35;;;;;;;0.13;0.13;;;;;;;11.32;90.63;97764.16;5092999;28;20452;-76
2023/10/09 04:12:20;;;;;;;;;;;;;;;11.34;90.98;97759.44;5096842;28;20036;-77
2023/10/09 04:14:54;;;;;;;0.20;0.20;;;;;;;11.40;90.98;97763.19;5095073;28;20485;-76
2023/10/09 04:23:04;;;;;;;0.30;0.30;;;;;;;11.52;90.60;97755.47;5097519;28;20102;-75
2023/10/09 04:25:41;;;;;;;0.20;0.20;;;;;;;11.52;90.99;97737.59;5092448;28;20041;-74
2023/10/09 04:28:18;;;;;;;0.30;0.30;;;;;;;11.54;91.00;97740.84;5092447;28;20041;-75
2023/10/09 04:30:53;;;;;;;0.30;0.30;;;;;;;11.56;91.05;97752.19;5097495;28;20043;-75
2023/10/09 04:33:34;;;;;;;0.28;0.28;;;;;;;11.56;90.83;97746.84;5104832;28;20091;-76
2023/10/09 04:36:16;;;;;;;0.20;0.20;;;;;;;11.59;91.27;97738.44;5095912;28;20044;-76
2023/10/09 04:38:55;;;;;;;0.20;0.17;;;;;;;11.64;90.97;97735.16;5085042;28;20097;-76
2023/10/09 04:41:33;;;;;;;0.20;0.20;;;;;;;11.65;90.72;97734.97;5092630;28;20089;-78
2023/10/09 04:44:18;;;;;;;0.13;0.13;;;;;;;11.71;90.99;97736.84;5101026;28;20035;-77
2023/10/09 04:47:18;;;;;;;0.20;0.20;;;;;;;11.68;91.00;97745.28;5095561;28;20532;-78
2023/10/09 04:49:49;;;;;;;0.25;0.25;;;;;;;11.68;91.45;97731.06;5091462;28;20055;-77
2023/10/09 04:52:51;;;;;;;0.20;0.20;;;;;;;11.70;91.03;97726.34;5091554;28;20059;-76
2023/10/09 04:55:19;;;;;;;0.20;0.20;;;;;;;11.72;91.02;97711.78;5103499;28;20051;-77
2023/10/09 04:58:00;;;;;;;0.20;0.20;;;;;;;11.73;90.99;97705.38;5079073;28;20054;-75
2023/10/09 05:01:01;;;;;;;0.30;0.30;;;;;;;11.76;91.11;97705.00;5089367;28;20102;-76
2023/10/09 05:03:42;;;;;;;0.20;0.20;;;;;;;11.81;90.92;97708.97;5092495;28;20089;-76
2023/10/09 05:09:14;;;;;;;0.20;0.20;;;;;;;11.91;90.69;97675.47;5060763;28;20056;-77
2023/10/09 05:11:53;;;;;;;0.30;0.30;;;;;;;11.96;90.27;97669.50;5091880;28;20044;-77
2023/10/09 05:14:38;;;;;;;0.30;0.30;;;;;;;11.98;90.53;97672.78;5092716;28;20123;-77
2023/10/09 05:17:15;;;;;;;0.22;0.22;;;;;;;12.00;90.73;97670.75;5099002;28;20047;-76
2023/10/09 05:19:54;;;;;;;0.28;0.20;;;;;;;12.01;90.73;97685.78;5096361;28;20122;-77
2023/10/09 05:22:36;;;;;;;0.20;0.20;;;;;;;11.99;90.95;97685.97;5091579;28;20380;-76
2023/10/09 05:25:15;;;;;;;0.20;0.20;;;;;;;12.05;90.89;97693.19;5080562;28;20072;-77
2023/10/09 05:27:46;;;;;;;0.25;0.25;;;;;;;12.09;90.72;97697.13;5090989;28;20557;-77
2023/10/09 05:30:24;;;;;;;0.10;0.10;;;;;;;12.14;90.64;97699.19;5098154;28;20127;-77
2023/10/09 05:32:58;;;;;;;0.30;0.30;;;;;;;12.15;90.33;97703.50;5091569;28;20043;-76
2023/10/09 05:35:40;;;;;;;0.30;0.30;;;;;;;12.17;90.53;97712.16;5093973;28;20044;-76
2023/10/09 05:38:23;;;;;;;0.10;0.10;;;;;;;12.23;90.49;97713.22;5100022;28;20044;-77
2023/10/09 05:41:04;;;;;;;0.20;0.20;;;;;;;12.27;90.56;97714.44;5093835;28;20100;-77
2023/10/09 05:46:17;;;;;;;0.20;0.20;;;;;;;12.30;89.86;97720.22;5097488;28;20102;-76
2023/10/09 05:48:54;;;;;;;0.10;0.10;;;;;;;12.31;89.85;97707.66;5091430;28;20160;-77
2023/10/09 05:55:09;;;;;;;0.20;0.20;;;;;;;12.33;89.84;97713.66;5070267;28;20055;-76
2023/10/09 06:05:51;;;;;;;0.30;0.30;;;;;;;12.39;90.12;97723.53;5091964;28;20040;-76
2023/10/09 06:08:24;;;;;;;0.22;0.22;;;;;;;12.42;90.30;97715.94;5101922;28;20050;-76
2023/10/09 06:11:05;;;;;;;0.52;0.30;;;;;;;12.42;90.42;97718.59;5100405;28;20039;-78
2023/10/09 06:13:41;;;;;;;0.30;0.30;;;;;;;12.48;90.20;97738.38;5096793;28;20491;-77
2023/10/09 06:16:19;;;;;;;0.30;0.30;;;;;;;12.47;90.40;97726.00;5092513;28;20039;-77
2023/10/09 06:19:07;;;;;;;0.20;0.20;;;;;;;12.55;89.98;97728.53;5093974;28;20043;-77
2023/10/09 06:21:40;;;;;;;0.45;0.30;;;;;;;12.56;90.13;97719.47;5090676;28;20047;-77
2023/10/09 06:24:15;;;;;;;0.20;0.20;;;;;;;12.57;89.83;97726.44;5090791;28;20040;-77
2023/10/09 06:27:11;;;;;;;0.10;0.10;;;;;;;12.57;90.11;97721.09;5100843;28;20043;-77
2023/10/09 06:29:51;;;;;;;0.20;0.20;;;;;;;12.60;90.13;97722.53;5092991;28;20067;-77
2023/10/09 06:35:18;;;;;;;0.20;0.20;;;;;;;12.65;90.27;97738.84;5088160;28;20055;-76
2023/10/09 06:43:42;;;;;;;0.20;0.20;;;;;;;12.70;90.08;97747.88;5029215;28;20059;-76
2023/10/09 06:46:43;;;;;;;0.20;0.20;;;;;;;12.72;89.97;97751.19;5066877;28;20048;-76
2023/10/09 06:49:29;;;;;;;0.20;0.20;;;;;;;12.77;90.07;97764.00;5091837;28;20568;-76
2023/10/09 06:52:13;;;;;;;0.13;0.13;;;;;;;12.78;89.93;97758.41;5085640;28;20059;-75
2023/10/09 06:54:49;;;;;;;0.82;0.82;;;;;;;12.79;90.19;97749.34;5090730;28;20533;-76
2023/10/09 06:57:43;;;;;;;0.30;0.30;;;;;;;12.80;90.05;97750.16;5087258;28;20424;-76
2023/10/09 07:00:54;;;;;;;0.15;0.15;;;;;;;12.82;90.15;97756.16;5077253;28;20080;-75
2023/10/09 07:03:11;;;;;;;0.10;0.10;;;;;;;12.83;89.84;97761.31;5087247;28;20073;-75
2023/10/09 07:06:00;;;;;;;0.25;0.25;;;;;;;12.86;89.94;97768.13;5096848;28;20340;-76
2023/10/09 07:08:32;;;;;;;0.25;0.25;;;;;;;12.88;90.04;97764.19;5090669;28;20184;-75
2023/10/09 07:11:21;;;;;;;0.30;0.30;;;;;;;12.92;89.91;97774.50;5094797;28;20055;-76
2023/10/09 07:13:53;;;;;;;0.20;0.20;;;;;;;12.93;89.94;97771.63;5105729;28;20155;-75
2023/10/09 07:16:23;;;;;;;0.20;0.20;;;;;;;12.95;90.12;97780.28;5093577;28;20405;-75
2023/10/09 07:18:54;;;;;;;0.20;0.20;;;;;;;12.99;89.94;97783.34;5100680;28;20501;-75
2023/10/09 07:21:27;;;;;;;0.10;0.10;;;;;;;13.00;89.90;97775.09;5110263;28;20036;-77
2023/10/09 07:23:58;;;;;;;0.20;0.20;;;;;;;13.05;89.78;97779.88;5104805;28;20422;-75
2023/10/09 07:26:37;;;;;;;0.30;0.30;;;;;;;13.18;89.46;97772.66;5104579;28;20040;-75
2023/10/09 07:29:21;;;;;;;0.30;0.30;;;;;;;13.12;89.29;97778.84;5098907;28;20495;-75
2023/10/09 07:31:57;;;;;;;0.20;0.20;;;;;;;13.14;89.47;97776.81;5095865;28;20066;-75
2023/10/09 07:37:19;;;;;;;0.35;0.35;;;;;;;13.16;89.19;97790.00;5099937;28;20203;-75
2023/10/09 07:39:56;;;;;;;0.30;0.30;;;;;;;13.18;88.89;97794.09;5103706;28;20312;-75
2023/10/09 07:42:43;;;;;;;0.28;0.28;;;;;;;13.21;88.81;97795.56;5093859;28;20036;-75
2023/10/09 07:48:04;;;;;;;0.10;0.10;;;;;;;13.26;88.84;97803.81;5100017;28;20067;-75
2023/10/09 07:50:40;;;;;;;0.30;0.30;;;;;;;13.27;88.71;97810.00;5099857;28;20109;-75
2023/10/09 07:53:25;;;;;;;0.20;0.20;;;;;;;13.28;88.69;97806.31;5094760;28;20072;-76
2023/10/09 07:55:55;;;;;;;0.20;0.20;;;;;;;13.35;88.76;97815.16;5086870;28;20510;-75
2023/10/09 07:58:25;;;;;;;0.20;0.20;;;;;;;13.33;88.80;97815.34;5102935;28;20044;-75
2023/10/09 08:01:15;;;;;;;0.35;0.35;;;;;;;13.35;88.33;97810.63;5097716;28;20048;-75
2023/10/09 08:03:46;;;;;;;0.20;0.20;;;;;;;13.42;88.81;97810.59;5093280;28;20123;-76
2023/10/09 08:14:45;;;;;;;0.20;0.20;;;;;;;13.49;88.00;97811.44;5091782;28;20036;-76
2023/10/09 08:17:15;;;;;;;0.22;0.22;;;;;;;13.47;87.98;97810.81;5088975;28;20048;-76
2023/10/09 08:19:54;;;;;;;0.10;0.10;;;;;;;13.47;88.21;97810.81;5094096;28;20147;-74
2023/10/09 08:25:08;;;;;;;0.20;0.20;;;;;;;13.49;88.53;97798.03;5091865;28;20040;-76
2023/10/09 08:27:53;;;;;;;0.30;0.30;;;;;;;13.49;88.49;97812.28;5091060;28;20090;-74
2023/10/09 08:36:01;;;;;;;0.20;0.20;;;;;;;13.58;88.14;97826.28;5069844;28;20058;-74
2023/10/09 08:38:33;;;;;;;0.20;0.20;;;;;;;13.60;87.80;97816.97;5071697;28;20040;-75
2023/10/09 08:41:15;;;;;;;0.10;0.10;;;;;;;13.63;88.10;97809.56;5071487;28;20072;-75
2023/10/09 08:43:51;;;;;;;0.20;0.20;;;;;;;13.66;88.02;97822.56;5081732;28;20048;-74
2023/10/09 08:46:23;;;;;;;0.30;0.30;;;;;;;13.68;87.68;97818.66;5088748;28;20082;-75
2023/10/09 08:48:51;;;;;;;0.20;0.20;;;;;;;13.67;87.76;97821.53;5090500;28;20055;-74
2023/10/09 08:51:19;;;;;;;0.10;0.10;;;;;;;13.69;87.65;97827.53;5090807;28;20080;-75
2023/10/09 08:53:47;;;;;;;0.20;0.20;;;;;;;13.72;87.77;97835.13;5090674;28;20059;-75
2023/10/09 08:56:21;;;;;;;0.20;0.20;;;;;;;13.70;87.95;97837.22;5091043;28;20115;-74
2023/10/09 08:58:54;;;;;;;0.20;0.20;;;;;;;13.69;88.23;97843.63;5090763;28;20040;-74
2023/10/09 09:01:24;;;;;;;0.20;0.10;;;;;;;13.74;88.60;97838.44;5092222;28;20055;-75
2023/10/09 09:03:55;;;;;;;0.30;0.30;;;;;;;13.74;87.94;97839.25;5091274;28;20036;-75
2023/10/09 09:06:24;;;;;;;0.13;0.13;;;;;;;13.71;87.83;97853.06;5092877;28;20102;-74
2023/10/09 09:08:54;;;;;;;0.15;0.10;;;;;;;13.74;87.89;97843.78;5090349;28;20749;-74
2023/10/09 09:11:24;;;;;;;0.10;0.10;;;;;;;13.74;88.24;97849.16;5089130;28;20052;-74
2023/10/09 09:14:04;;;;;;;0.20;0.20;;;;;;;13.73;88.15;97836.78;5090901;28;20048;-75
2023/10/09 09:16:35;;;;;;;0.20;0.20;;;;;;;13.81;88.30;97841.91;5090817;28;20044;-75
2023/10/09 09:19:17;;;;;;;0.35;0.35;;;;;;;13.80;88.43;97846.50;5090729;28;20084;-75
2023/10/09 09:21:54;;;;;;;0.20;0.20;;;;;;;13.74;88.64;97838.44;5090727;28;20475;-75
2023/10/09 09:24:31;;;;;;;0.10;0.10;;;;;;;13.75;89.47;97835.53;5090189;28;20399;-76
2023/10/09 09:27:09;;;;;;;0.20;0.20;;;;;;;13.71;88.98;97833.47;5089590;28;20032;-74
2023/10/09 09:29:40;;;;;;;0.15;0.15;;;;;;;13.71;89.21;97844.19;5087733;28;20048;-76
2023/10/09 09:34:55;;;;;;;0.20;0.20;;;;;;;13.70;89.42;97847.94;5090585;28;20051;-74
2023/10/09 09:37:28;;;;;;;0.10;0.10;;;;;;;13.70;89.60;97850.63;5089387;28;20044;-74
2023/10/09 09:40:00;;;;;;;0.13;0.13;;;;;;;13.69;89.46;97849.81;5092104;28;20408;-74
2023/10/09 09:42:31;;;;;;;0.10;0.10;;;;;;;13.72;89.93;97851.22;5090561;28;20123;-73
2023/10/09 09:45:01;;;;;;;0.20;0.20;;;;;;;13.73;89.93;97850.19;5090384;28;20045;-74
2023/10/09 09:47:35;;;;;;;0.25;0.25;;;;;;;13.79;89.98;97862.78;5088858;28;20414;-73
2023/10/09 09:50:12;;;;;;;0.20;0.20;;;;;;;13.73;90.49;97848.34;5091056;28;20039;-74
2023/10/09 09:52:40;;;;;;;0.20;0.20;;;;;;;13.72;90.77;97851.22;5091078;28;20044;-73
2023/10/09 09:55:14;;;;;;;0.28;0.28;;;;;;;13.72;91.09;97849.38;5090346;28;20036;-76
2023/10/09 09:57:42;;;;;;;0.20;0.20;;;;;;;13.72;90.97;97853.91;5089595;28;20570;-75
2023/10/09 10:00:28;;;;;;;0.22;0.22;;;;;;;13.72;91.42;97840.50;5088512;28;20119;-75
2023/10/09 10:02:59;;;;;;;0.10;0.10;;;;;;;13.68;91.95;97840.09;5090525;28;20406;-75
2023/10/09 10:05:29;;;;;;;0.40;0.40;;;;;;;13.67;91.81;97835.78;5090829;28;20051;-76
2023/10/09 10:07:58;;;;;;;0.20;0.20;;;;;;;13.64;91.82;97836.19;5090013;28;20043;-75
2023/10/09 10:10:47;;;;;;;0.20;0.20;;;;;;;13.65;91.53;97828.94;5096677;28;20040;-74
2023/10/09 10:13:21;;;;;;;0.20;0.20;;;;;;;13.68;91.35;97825.88;5088848;28;20044;-75
2023/10/09 10:16:11;;;;;;;0.43;0.43;;;;;;;13.65;91.48;97826.28;5089280;28;20127;-74
2023/10/09 10:21:42;;;;;;;0.20;0.20;;;;;;;13.66;91.00;97833.28;5081785;28;19920;-75
2023/10/09 10:24:57;;;;;;;0.28;0.28;;;;;;;13.68;91.02;97825.88;5089457;28;20123;-76
2023/10/09 10:27:32;;;;;;;0.20;0.20;;;;;;;13.64;91.15;97827.31;5085907;28;20040;-75
2023/10/09 10:30:36;;;;;;;0.20;0.20;;;;;;;13.65;91.17;97831.63;5088604;28;20040;-75
2023/10/09 10:33:13;;;;;;;0.20;0.20;;;;;;;13.72;90.77;97824.41;5047481;28;20056;-75
2023/10/09 10:35:46;;;;;;;0.10;0.10;;;;;;;13.68;91.17;97820.50;5047287;28;20088;-75
2023/10/09 10:38:24;;;;;;;0.20;0.20;;;;;;;13.69;91.38;97824.84;5068544;28;20400;-75
2023/10/09 10:40:57;;;;;;;;;;;;;;;13.73;91.55;97818.81;5089020;28;20047;-76
2023/10/09 10:43:47;;;;;;;0.20;0.20;;;;;;;13.74;91.95;97819.66;5089883;28;20324;-75
2023/10/09 10:46:24;;;;;;;0.60;0.60;;;;;;;13.75;91.62;97815.94;5091831;28;20637;-75
2023/10/09 10:48:59;;;;;;;0.20;0.20;;;;;;;13.77;91.96;97819.25;5093060;28;20106;-75
2023/10/09 10:51:37;;;;;;;0.30;0.30;;;;;;;13.77;92.30;97814.72;5093429;28;20032;-74
2023/10/09 10:56:52;;;;;;;0.20;0.20;;;;;;;13.79;92.07;97798.41;5092297;28;20089;-75
2023/10/09 10:59:24;;;;;;;0.20;0.20;;;;;;;13.78;92.04;97796.75;5094265;28;20036;-75
2023/10/09 11:02:13;;;;;;;0.20;0.20;;;;;;;13.80;92.19;97786.63;5093467;28;20046;-75
2023/10/09 11:04:43;;;;;;;0.13;0.13;;;;;;;13.79;91.80;97785.00;5091955;28;20043;-75
2023/10/09 11:07:15;;;;;;;0.15;0.15;;;;;;;13.81;92.28;97786.41;5092400;28;20104;-75
2023/10/09 11:09:58;;;;;;;0.75;0.30;;;;;;;13.81;91.64;97782.88;5093064;28;20044;-75
2023/10/09 11:12:38;;;;;;;0.20;0.20;;;;;;;13.84;91.49;97785.16;5093032;28;20636;-75
2023/10/09 11:15:08;;;;;;;0.10;0.10;;;;;;;13.86;91.42;97799.19;5093585;28;20476;-75
2023/10/09 11:17:38;;;;;;;0.20;0.20;;;;;;;13.86;91.07;97793.84;5088399;28;20159;-75
2023/10/09 11:23:14;;;;;;;0.15;0.15;;;;;;;13.82;90.84;97781.84;5092659;28;20269;-75
2023/10/09 11:25:52;;;;;;;0.20;0.20;;;;;;;13.82;90.75;97776.50;5091187;28;20091;-75
2023/10/09 11:28:42;;;;;;;0.25;0.25;;;;;;;13.80;91.18;97783.97;5090388;28;20664;-75
2023/10/09 11:31:11;;;;;;;0.17;0.17;;;;;;;13.81;91.42;97781.03;5091760;28;20047;-75
2023/10/09 11:33:48;;;;;;;0.20;0.20;;;;;;;13.80;91.04;97775.91;5092721;28;20048;-75
2023/10/09 11:36:14;;;;;;;0.20;0.20;;;;;;;13.83;91.26;97778.16;5092723;28;20406;-75
2023/10/09 11:38:45;;;;;;;0.30;0.30;;;;;;;13.81;91.05;97774.84;5091933;28;20123;-75
2023/10/09 11:41:22;;;;;;;0.10;0.10;;;;;;;13.80;91.39;97771.38;5093202;28;20050;-75
2023/10/09 11:43:53;;;;;;;0.32;0.32;;;;;;;13.82;91.71;97766.59;5084420;28;20062;-75
2023/10/09 11:46:48;;;;;;;0.28;0.28;;;;;;;13.83;91.74;97760.19;5086601;28;20047;-75
2023/10/09 11:54:56;;;;;;;0.22;0.22;;;;;;;13.87;92.42;97747.19;5091646;28;20044;-75
2023/10/09 11:57:31;;;;;;;0.30;0.30;;;;;;;13.85;91.92;97743.88;5092288;28;20048;-74
2023/10/09 11:59:59;;;;;;;0.20;0.20;;;;;;;13.86;92.24;97748.22;5092358;28;20444;-75
2023/10/09 12:02:31;;;;;;;0.20;0.20;;;;;;;13.80;92.21;97752.59;5092006;28;20502;-75
2023/10/09 12:04:59;;;;;;;0.20;0.20;;;;;;;13.79;91.96;97744.75;5090133;28;20043;-75
2023/10/09 12:07:27;;;;;;;0.30;0.30;;;;;;;13.79;92.02;97745.56;5091322;28;20460;-75
2023/10/09 12:09:57;;;;;;;0.30;0.30;;;;;;;13.80;92.36;97749.06;5091849;28;20051;-75
2023/10/09 12:12:26;;;;;;;0.22;0.22;;;;;;;13.82;92.64;97750.50;5091181;28;20067;-75
2023/10/09 12:14:54;;;;;;;0.20;0.20;;;;;;;13.81;92.54;97753.38;5091204;28;20056;-75
2023/10/09 12:17:25;;;;;;;0.20;0.20;;;;;;;13.82;92.83;97750.50;5091374;28;20715;-75
2023/10/09 12:19:56;;;;;;;0.15;0.15;;;;;;;13.82;93.03;97757.72;5091405;28;20048;-75
2023/10/09 12:22:26;;;;;;;0.20;0.20;;;;;;;13.84;92.79;97761.00;5092968;28;20044;-74
2023/10/09 12:24:56;;;;;;;0.20;0.20;;;;;;;13.86;92.61;97761.63;5091735;28;20427;-74
2023/10/09 12:27:28;;;;;;;0.30;0.30;;;;;;;13.89;93.04;97763.91;5089120;28;20123;-74
2023/10/09 12:29:56;;;;;;;;;;;;;;;13.89;92.54;97764.72;5090910;28;20047;-74
2023/10/09 12:32:24;;;;;;;0.30;0.30;;;;;;;13.90;92.71;97757.50;5091753;28;19920;-73
2023/10/09 12:34:52;;;;;;;0.10;0.10;;;;;;;13.92;92.67;97755.41;5090052;28;20052;-73
2023/10/09 12:37:20;;;;;;;0.17;0.17;;;;;;;13.91;92.84;97759.16;5090471;28;20542;-73
2023/10/09 12:39:55;;;;;;;0.10;0.10;;;;;;;13.90;92.97;97752.13;5091069;28;20040;-73
2023/10/09 12:42:24;;;;;;;0.30;0.30;;;;;;;13.86;93.18;97749.03;5091364;28;20065;-74
2023/10/09 12:44:57;;;;;;;0.28;0.28;;;;;;;13.88;92.95;97738.09;5090888;28;20101;-73
2023/10/09 12:47:26;;;;;;;0.30;0.30;;;;;;;13.88;93.29;97738.94;5091630;28;20044;-72
2023/10/09 12:49:54;;;;;;;0.20;0.20;;;;;;;13.87;93.24;97739.13;5089991;28;20052;-72
2023/10/09 12:52:29;;;;;;;0.20;0.20;;;;;;;13.87;92.89;97734.59;5090025;28;20056;-73
2023/10/09 12:54:57;;;;;;;0.25;0.25;;;;;;;13.87;93.33;97731.91;5090950;28;20042;-73
2023/10/09 12:57:26;;;;;;;0.30;0.30;;;;;;;13.91;93.04;97727.75;5091694;28;20123;-73
2023/10/09 12:59:54;;;;;;;0.20;0.20;;;;;;;13.89;93.10;97718.28;5090410;28;20421;-72
2023/10/09 13:02:29;;;;;;;0.20;0.20;;;;;;;13.91;92.97;97721.59;5090152;28;20066;-76
2023/10/09 13:04:59;;;;;;;0.30;0.30;;;;;;;13.90;93.04;97723.44;5090332;28;20040;-75
2023/10/09 13:07:27;;;;;;;0.20;0.20;;;;;;;13.93;92.98;97723.00;5090489;28;20391;-75
2023/10/09 13:10:09;;;;;;;0.25;0.25;;;;;;;13.94;92.34;97721.16;5089484;28;20138;-76
2023/10/09 13:12:41;;;;;;;0.25;0.25;;;;;;;13.90;92.39;97719.94;5097231;28;20125;-75
2023/10/09 13:15:10;;;;;;;0.30;0.30;;;;;;;13.92;92.13;97726.72;5094543;28;20036;-74
2023/10/09 13:17:38;;;;;;;0.30;0.30;;;;;;;13.93;91.95;97725.69;5095133;28;20448;-74
2023/10/09 13:20:12;;;;;;;0.17;0.17;;;;;;;13.92;92.26;97729.41;5098625;28;20039;-75
2023/10/09 13:22:41;;;;;;;0.10;0.10;;;;;;;13.92;92.80;97721.34;5092190;28;20074;-75